sensor_id;sensor_type;location;lat;lon;timestamp;P1;durP1;ratioP1;P2;durP2;ratioP2
2107;SDS011;1060;52.492;13.388;2022-07-11T00:05:18;6.80;;;2.23;;
2107;SDS011;1060;52.492;13.388;2022-07-11T00:08:05;6.17;;;2.30;;
2107;SDS011;1060;52.492;13.388;2022-07-11T00:11:18;2.57;;;1.63;;
2107;SDS011;1060;52.492;13.388;2022-07-11T00:13:59;4.30;;;2.30;;
2107;SDS011;1060;52.492;13.388;2022-07-11T00:19:43;6.90;;;2.00;;
2107;SDS011;1060;52.492;13.388;2022-07-11T00:22:20;5.40;;;1.90;;
2107;SDS011;1060;52.492;13.388;2022-07-11T00:25:00;6.23;;;2.50;;
2107;SDS011;1060;52.492;13.388;2022-07-11T00:27:44;2.80;;;1.67;;
2107;SDS011;1060;52.492;13.388;2022-07-11T00:30:22;4.50;;;1.70;;
2107;SDS011;1060;52.492;13.388;2022-07-11T00:33:24;5.33;;;1.97;;
2107;SDS011;1060;52.492;13.388;2022-07-11T00:36:35;2.90;;;1.90;;
2107;SDS011;1060;52.492;13.388;2022-07-11T00:39:40;4.93;;;2.37;;
2107;SDS011;1060;52.492;13.388;2022-07-11T00:42:38;5.73;;;2.30;;
2107;SDS011;1060;52.492;13.388;2022-07-11T00:45:42;7.33;;;2.27;;
2107;SDS011;1060;52.492;13.388;2022-07-11T00:48:45;7.73;;;2.27;;
2107;SDS011;1060;52.492;13.388;2022-07-11T00:54:07;6.00;;;2.40;;
2107;SDS011;1060;52.492;13.388;2022-07-11T00:57:09;4.10;;;1.77;;
2107;SDS011;1060;52.492;13.388;2022-07-11T01:10:43;5.07;;;2.23;;
2107;SDS011;1060;52.492;13.388;2022-07-11T01:13:39;8.43;;;2.40;;
2107;SDS011;1060;52.492;13.388;2022-07-11T01:19:59;5.20;;;1.93;;
2107;SDS011;1060;52.492;13.388;2022-07-11T01:22:29;4.83;;;2.90;;
2107;SDS011;1060;52.492;13.388;2022-07-11T01:25:10;3.40;;;1.90;;
2107;SDS011;1060;52.492;13.388;2022-07-11T01:27:51;4.93;;;3.13;;
2107;SDS011;1060;52.492;13.388;2022-07-11T01:30:52;4.27;;;3.03;;
2107;SDS011;1060;52.492;13.388;2022-07-11T01:33:21;6.20;;;1.40;;
2107;SDS011;1060;52.492;13.388;2022-07-11T01:36:09;6.63;;;1.90;;
2107;SDS011;1060;52.492;13.388;2022-07-11T01:38:50;4.00;;;2.10;;
2107;SDS011;1060;52.492;13.388;2022-07-11T01:45:00;7.10;;;1.90;;
2107;SDS011;1060;52.492;13.388;2022-07-11T01:47:29;7.83;;;2.40;;
2107;SDS011;1060;52.492;13.388;2022-07-11T01:50:22;3.63;;;2.37;;
2107;SDS011;1060;52.492;13.388;2022-07-11T01:53:09;6.63;;;3.77;;
2107;SDS011;1060;52.492;13.388;2022-07-11T01:55:38;3.37;;;1.80;;
2107;SDS011;1060;52.492;13.388;2022-07-11T01:58:19;6.90;;;2.47;;
2107;SDS011;1060;52.492;13.388;2022-07-11T02:00:48;8.27;;;2.53;;
2107;SDS011;1060;52.492;13.388;2022-07-11T02:03:21;3.90;;;2.37;;
2107;SDS011;1060;52.492;13.388;2022-07-11T02:05:56;5.33;;;2.10;;
2107;SDS011;1060;52.492;13.388;2022-07-11T02:08:25;2.70;;;1.70;;
2107;SDS011;1060;52.492;13.388;2022-07-11T02:13:40;6.83;;;1.90;;
2107;SDS011;1060;52.492;13.388;2022-07-11T02:16:18;4.63;;;2.23;;
2107;SDS011;1060;52.492;13.388;2022-07-11T02:18:56;10.63;;;2.70;;
2107;SDS011;1060;52.492;13.388;2022-07-11T02:21:34;2.90;;;1.63;;
2107;SDS011;1060;52.492;13.388;2022-07-11T02:24:18;3.00;;;1.93;;
2107;SDS011;1060;52.492;13.388;2022-07-11T02:26:50;4.97;;;2.83;;
2107;SDS011;1060;52.492;13.388;2022-07-11T02:29:21;6.43;;;1.63;;
2107;SDS011;1060;52.492;13.388;2022-07-11T02:31:53;6.20;;;2.33;;
2107;SDS011;1060;52.492;13.388;2022-07-11T02:34:34;4.23;;;2.10;;
2107;SDS011;1060;52.492;13.388;2022-07-11T02:37:09;4.80;;;2.00;;
2107;SDS011;1060;52.492;13.388;2022-07-11T02:39:36;4.87;;;2.57;;
2107;SDS011;1060;52.492;13.388;2022-07-11T02:42:02;5.03;;;1.70;;
2107;SDS011;1060;52.492;13.388;2022-07-11T02:44:31;5.67;;;3.50;;
2107;SDS011;1060;52.492;13.388;2022-07-11T02:46:59;3.27;;;1.80;;
2107;SDS011;1060;52.492;13.388;2022-07-11T02:49:44;3.70;;;2.33;;
2107;SDS011;1060;52.492;13.388;2022-07-11T02:52:20;3.30;;;1.97;;
2107;SDS011;1060;52.492;13.388;2022-07-11T02:54:52;6.83;;;2.57;;
2107;SDS011;1060;52.492;13.388;2022-07-11T02:57:24;3.50;;;2.53;;
2107;SDS011;1060;52.492;13.388;2022-07-11T02:59:56;6.70;;;2.93;;
2107;SDS011;1060;52.492;13.388;2022-07-11T03:02:29;6.13;;;2.87;;
2107;SDS011;1060;52.492;13.388;2022-07-11T03:04:58;9.43;;;3.03;;
2107;SDS011;1060;52.492;13.388;2022-07-11T03:07:27;3.43;;;2.50;;
2107;SDS011;1060;52.492;13.388;2022-07-11T03:10:33;8.07;;;2.30;;
2107;SDS011;1060;52.492;13.388;2022-07-11T03:13:10;3.70;;;2.13;;
2107;SDS011;1060;52.492;13.388;2022-07-11T03:15:45;4.97;;;2.97;;
2107;SDS011;1060;52.492;13.388;2022-07-11T03:18:33;7.20;;;2.60;;
2107;SDS011;1060;52.492;13.388;2022-07-11T03:21:14;8.73;;;2.30;;
2107;SDS011;1060;52.492;13.388;2022-07-11T03:23:54;4.43;;;2.60;;
2107;SDS011;1060;52.492;13.388;2022-07-11T03:26:41;6.23;;;2.30;;
2107;SDS011;1060;52.492;13.388;2022-07-11T03:29:09;5.07;;;3.00;;
2107;SDS011;1060;52.492;13.388;2022-07-11T03:31:58;6.00;;;3.13;;
2107;SDS011;1060;52.492;13.388;2022-07-11T03:34:36;6.10;;;2.80;;
2107;SDS011;1060;52.492;13.388;2022-07-11T03:37:28;5.07;;;2.80;;
2107;SDS011;1060;52.492;13.388;2022-07-11T03:40:40;3.87;;;2.30;;
2107;SDS011;1060;52.492;13.388;2022-07-11T03:43:23;4.27;;;2.93;;
2107;SDS011;1060;52.492;13.388;2022-07-11T03:51:22;6.70;;;2.80;;
2107;SDS011;1060;52.492;13.388;2022-07-11T03:54:23;2.23;;;2.00;;
2107;SDS011;1060;52.492;13.388;2022-07-11T03:57:04;4.10;;;2.30;;
2107;SDS011;1060;52.492;13.388;2022-07-11T03:59:42;6.63;;;3.10;;
2107;SDS011;1060;52.492;13.388;2022-07-11T04:04:56;9.53;;;3.27;;
2107;SDS011;1060;52.492;13.388;2022-07-11T04:07:33;3.60;;;2.70;;
2107;SDS011;1060;52.492;13.388;2022-07-11T04:10:02;5.13;;;3.03;;
2107;SDS011;1060;52.492;13.388;2022-07-11T04:12:29;10.50;;;2.80;;
2107;SDS011;1060;52.492;13.388;2022-07-11T04:15:13;6.17;;;3.50;;
2107;SDS011;1060;52.492;13.388;2022-07-11T04:17:51;5.30;;;2.67;;
2107;SDS011;1060;52.492;13.388;2022-07-11T04:20:19;6.70;;;2.73;;
2107;SDS011;1060;52.492;13.388;2022-07-11T04:23:01;4.30;;;3.10;;
2107;SDS011;1060;52.492;13.388;2022-07-11T04:25:30;7.73;;;3.10;;
2107;SDS011;1060;52.492;13.388;2022-07-11T04:28:12;4.87;;;3.07;;
2107;SDS011;1060;52.492;13.388;2022-07-11T04:30:53;6.43;;;2.10;;
2107;SDS011;1060;52.492;13.388;2022-07-11T04:33:28;10.53;;;3.07;;
2107;SDS011;1060;52.492;13.388;2022-07-11T04:36:08;8.37;;;1.90;;
2107;SDS011;1060;52.492;13.388;2022-07-11T04:38:49;3.40;;;2.30;;
2107;SDS011;1060;52.492;13.388;2022-07-11T04:41:21;3.63;;;2.40;;
2107;SDS011;1060;52.492;13.388;2022-07-11T04:44:54;3.70;;;2.10;;
2107;SDS011;1060;52.492;13.388;2022-07-11T04:47:05;5.40;;;2.90;;
2107;SDS011;1060;52.492;13.388;2022-07-11T04:49:37;5.10;;;2.60;;
2107;SDS011;1060;52.492;13.388;2022-07-11T04:52:38;5.77;;;2.00;;
2107;SDS011;1060;52.492;13.388;2022-07-11T04:55:13;11.93;;;2.97;;
2107;SDS011;1060;52.492;13.388;2022-07-11T05:04:24;4.53;;;1.87;;
2107;SDS011;1060;52.492;13.388;2022-07-11T05:07:09;3.63;;;1.87;;
2107;SDS011;1060;52.492;13.388;2022-07-11T05:09:55;3.30;;;2.30;;
2107;SDS011;1060;52.492;13.388;2022-07-11T05:12:32;2.83;;;1.80;;
2107;SDS011;1060;52.492;13.388;2022-07-11T05:21:35;3.27;;;2.23;;
2107;SDS011;1060;52.492;13.388;2022-07-11T05:24:37;4.13;;;2.10;;
2107;SDS011;1060;52.492;13.388;2022-07-11T05:27:35;4.50;;;2.27;;
2107;SDS011;1060;52.492;13.388;2022-07-11T05:30:49;4.30;;;2.30;;
2107;SDS011;1060;52.492;13.388;2022-07-11T05:39:24;5.40;;;2.00;;
2107;SDS011;1060;52.492;13.388;2022-07-11T05:42:32;7.07;;;2.27;;
2107;SDS011;1060;52.492;13.388;2022-07-11T05:46:09;4.90;;;2.57;;
2107;SDS011;1060;52.492;13.388;2022-07-11T05:49:16;5.20;;;2.43;;
2107;SDS011;1060;52.492;13.388;2022-07-11T05:55:33;8.07;;;3.63;;
2107;SDS011;1060;52.492;13.388;2022-07-11T05:58:25;6.07;;;2.57;;
2107;SDS011;1060;52.492;13.388;2022-07-11T06:04:37;11.43;;;2.23;;
2107;SDS011;1060;52.492;13.388;2022-07-11T06:07:50;4.90;;;2.60;;
2107;SDS011;1060;52.492;13.388;2022-07-11T06:20:52;5.10;;;3.13;;
2107;SDS011;1060;52.492;13.388;2022-07-11T06:30:39;8.23;;;3.63;;
2107;SDS011;1060;52.492;13.388;2022-07-11T06:33:44;5.17;;;2.27;;
2107;SDS011;1060;52.492;13.388;2022-07-11T06:36:48;7.10;;;2.40;;
2107;SDS011;1060;52.492;13.388;2022-07-11T06:43:11;3.90;;;1.83;;
2107;SDS011;1060;52.492;13.388;2022-07-11T06:45:51;3.80;;;1.80;;
2107;SDS011;1060;52.492;13.388;2022-07-11T06:51:56;7.40;;;3.57;;
2107;SDS011;1060;52.492;13.388;2022-07-11T06:57:43;5.27;;;2.30;;
2107;SDS011;1060;52.492;13.388;2022-07-11T07:00:36;9.97;;;2.30;;
2107;SDS011;1060;52.492;13.388;2022-07-11T07:03:31;6.10;;;3.33;;
2107;SDS011;1060;52.492;13.388;2022-07-11T07:06:02;3.57;;;2.13;;
2107;SDS011;1060;52.492;13.388;2022-07-11T07:08:39;7.60;;;2.70;;
2107;SDS011;1060;52.492;13.388;2022-07-11T07:11:11;10.50;;;5.00;;
2107;SDS011;1060;52.492;13.388;2022-07-11T07:13:53;7.10;;;2.50;;
2107;SDS011;1060;52.492;13.388;2022-07-11T07:19:50;5.60;;;2.40;;
2107;SDS011;1060;52.492;13.388;2022-07-11T07:25:42;5.17;;;2.50;;
2107;SDS011;1060;52.492;13.388;2022-07-11T07:28:24;5.43;;;2.73;;
2107;SDS011;1060;52.492;13.388;2022-07-11T07:31:45;5.97;;;3.73;;
2107;SDS011;1060;52.492;13.388;2022-07-11T07:34:49;7.57;;;4.57;;
2107;SDS011;1060;52.492;13.388;2022-07-11T07:37:22;4.93;;;2.60;;
2107;SDS011;1060;52.492;13.388;2022-07-11T07:40:05;6.27;;;2.50;;
2107;SDS011;1060;52.492;13.388;2022-07-11T07:42:54;3.13;;;2.60;;
2107;SDS011;1060;52.492;13.388;2022-07-11T07:45:23;3.47;;;3.10;;
2107;SDS011;1060;52.492;13.388;2022-07-11T07:48:10;5.03;;;3.50;;
2107;SDS011;1060;52.492;13.388;2022-07-11T07:51:10;5.23;;;3.33;;
2107;SDS011;1060;52.492;13.388;2022-07-11T07:53:46;6.97;;;2.20;;
2107;SDS011;1060;52.492;13.388;2022-07-11T07:56:32;4.90;;;2.60;;
2107;SDS011;1060;52.492;13.388;2022-07-11T07:59:00;4.53;;;2.50;;
2107;SDS011;1060;52.492;13.388;2022-07-11T08:01:32;6.00;;;3.33;;
2107;SDS011;1060;52.492;13.388;2022-07-11T08:04:02;4.10;;;2.23;;
2107;SDS011;1060;52.492;13.388;2022-07-11T08:07:10;9.13;;;4.50;;
2107;SDS011;1060;52.492;13.388;2022-07-11T08:09:27;5.80;;;3.00;;
2107;SDS011;1060;52.492;13.388;2022-07-11T08:12:00;8.03;;;3.27;;
2107;SDS011;1060;52.492;13.388;2022-07-11T08:14:42;5.27;;;2.07;;
2107;SDS011;1060;52.492;13.388;2022-07-11T08:17:15;7.43;;;2.07;;
2107;SDS011;1060;52.492;13.388;2022-07-11T08:19:50;6.60;;;2.70;;
2107;SDS011;1060;52.492;13.388;2022-07-11T08:22:23;3.53;;;2.17;;
2107;SDS011;1060;52.492;13.388;2022-07-11T08:25:15;7.03;;;1.90;;
2107;SDS011;1060;52.492;13.388;2022-07-11T08:28:13;4.57;;;2.97;;
2107;SDS011;1060;52.492;13.388;2022-07-11T08:30:55;8.40;;;4.57;;
2107;SDS011;1060;52.492;13.388;2022-07-11T08:37:23;6.57;;;3.80;;
2107;SDS011;1060;52.492;13.388;2022-07-11T08:40:14;4.63;;;2.97;;
2107;SDS011;1060;52.492;13.388;2022-07-11T08:43:22;7.00;;;3.50;;
2107;SDS011;1060;52.492;13.388;2022-07-11T08:45:51;3.10;;;2.30;;
2107;SDS011;1060;52.492;13.388;2022-07-11T08:48:36;5.27;;;2.20;;
2107;SDS011;1060;52.492;13.388;2022-07-11T08:51:13;9.33;;;3.97;;
2107;SDS011;1060;52.492;13.388;2022-07-11T08:56:48;3.00;;;2.63;;
2107;SDS011;1060;52.492;13.388;2022-07-11T09:00:04;8.23;;;3.37;;
2107;SDS011;1060;52.492;13.388;2022-07-11T09:02:22;6.67;;;3.43;;
2107;SDS011;1060;52.492;13.388;2022-07-11T09:04:54;7.93;;;3.00;;
2107;SDS011;1060;52.492;13.388;2022-07-11T09:07:26;4.50;;;2.23;;
2107;SDS011;1060;52.492;13.388;2022-07-11T09:09:59;4.50;;;2.60;;
2107;SDS011;1060;52.492;13.388;2022-07-11T09:13:00;3.30;;;3.03;;
2107;SDS011;1060;52.492;13.388;2022-07-11T09:15:35;6.37;;;3.30;;
2107;SDS011;1060;52.492;13.388;2022-07-11T09:21:26;8.30;;;2.47;;
2107;SDS011;1060;52.492;13.388;2022-07-11T09:24:24;5.93;;;1.77;;
2107;SDS011;1060;52.492;13.388;2022-07-11T09:30:16;4.60;;;1.90;;
2107;SDS011;1060;52.492;13.388;2022-07-11T09:33:45;7.97;;;2.00;;
2107;SDS011;1060;52.492;13.388;2022-07-11T09:42:12;4.00;;;2.80;;
2107;SDS011;1060;52.492;13.388;2022-07-11T09:44:48;3.53;;;1.67;;
2107;SDS011;1060;52.492;13.388;2022-07-11T09:47:49;3.73;;;1.57;;
2107;SDS011;1060;52.492;13.388;2022-07-11T09:50:33;2.40;;;1.57;;
2107;SDS011;1060;52.492;13.388;2022-07-11T09:53:01;3.63;;;2.17;;
2107;SDS011;1060;52.492;13.388;2022-07-11T09:56:04;3.20;;;1.70;;
2107;SDS011;1060;52.492;13.388;2022-07-11T09:59:17;6.37;;;1.90;;
2107;SDS011;1060;52.492;13.388;2022-07-11T10:02:21;6.03;;;3.37;;
2107;SDS011;1060;52.492;13.388;2022-07-11T11:13:38;3.37;;;1.33;;
2107;SDS011;1060;52.492;13.388;2022-07-11T11:16:40;2.07;;;1.00;;
2107;SDS011;1060;52.492;13.388;2022-07-11T11:19:51;1.63;;;1.50;;
2107;SDS011;1060;52.492;13.388;2022-07-11T11:22:30;2.20;;;1.80;;
2107;SDS011;1060;52.492;13.388;2022-07-11T11:25:27;2.10;;;1.27;;
2107;SDS011;1060;52.492;13.388;2022-07-11T11:28:01;1.20;;;1.10;;
2107;SDS011;1060;52.492;13.388;2022-07-11T11:31:02;2.20;;;1.10;;
2107;SDS011;1060;52.492;13.388;2022-07-11T11:37:48;2.30;;;1.27;;
2107;SDS011;1060;52.492;13.388;2022-07-11T11:40:28;1.30;;;1.20;;
2107;SDS011;1060;52.492;13.388;2022-07-11T11:55:22;4.63;;;2.20;;
2107;SDS011;1060;52.492;13.388;2022-07-11T11:58:23;4.30;;;1.90;;
2107;SDS011;1060;52.492;13.388;2022-07-11T12:01:04;1.37;;;1.20;;
2107;SDS011;1060;52.492;13.388;2022-07-11T12:06:48;4.83;;;1.37;;
2107;SDS011;1060;52.492;13.388;2022-07-11T14:51:26;2.13;;;1.30;;
2107;SDS011;1060;52.492;13.388;2022-07-11T14:54:05;2.33;;;1.20;;
2107;SDS011;1060;52.492;13.388;2022-07-11T15:03:23;3.43;;;1.30;;
2107;SDS011;1060;52.492;13.388;2022-07-11T15:06:27;1.47;;;0.93;;
2107;SDS011;1060;52.492;13.388;2022-07-11T15:09:49;2.00;;;1.20;;
2107;SDS011;1060;52.492;13.388;2022-07-11T15:12:34;2.60;;;1.30;;
2107;SDS011;1060;52.492;13.388;2022-07-11T15:15:10;2.30;;;1.20;;
2107;SDS011;1060;52.492;13.388;2022-07-11T15:17:54;2.30;;;1.23;;
2107;SDS011;1060;52.492;13.388;2022-07-11T15:24:15;3.30;;;1.20;;
2107;SDS011;1060;52.492;13.388;2022-07-11T15:27:00;1.77;;;0.97;;
2107;SDS011;1060;52.492;13.388;2022-07-11T15:30:00;2.27;;;0.90;;
2107;SDS011;1060;52.492;13.388;2022-07-11T15:32:58;2.03;;;1.40;;
2107;SDS011;1060;52.492;13.388;2022-07-11T15:35:36;1.73;;;0.90;;
2107;SDS011;1060;52.492;13.388;2022-07-11T15:38:14;4.53;;;1.50;;
2107;SDS011;1060;52.492;13.388;2022-07-11T15:43:34;1.10;;;0.90;;
2107;SDS011;1060;52.492;13.388;2022-07-11T15:49:36;2.00;;;1.17;;
2107;SDS011;1060;52.492;13.388;2022-07-11T15:52:47;1.50;;;1.37;;
2107;SDS011;1060;52.492;13.388;2022-07-11T15:55:38;3.20;;;1.50;;
2107;SDS011;1060;52.492;13.388;2022-07-11T15:58:40;3.10;;;1.37;;
2107;SDS011;1060;52.492;13.388;2022-07-11T16:01:24;1.00;;;0.90;;
2107;SDS011;1060;52.492;13.388;2022-07-11T16:04:09;3.40;;;1.13;;
2107;SDS011;1060;52.492;13.388;2022-07-11T16:10:08;2.87;;;1.23;;
2107;SDS011;1060;52.492;13.388;2022-07-11T16:16:34;2.27;;;1.20;;
2107;SDS011;1060;52.492;13.388;2022-07-11T16:22:20;1.50;;;1.30;;
2107;SDS011;1060;52.492;13.388;2022-07-11T16:25:28;1.40;;;1.30;;
2107;SDS011;1060;52.492;13.388;2022-07-11T16:58:25;2.70;;;1.87;;
2107;SDS011;1060;52.492;13.388;2022-07-11T17:01:09;4.70;;;1.60;;
2107;SDS011;1060;52.492;13.388;2022-07-11T17:03:47;1.40;;;1.20;;
2107;SDS011;1060;52.492;13.388;2022-07-11T17:06:20;3.30;;;1.80;;
2107;SDS011;1060;52.492;13.388;2022-07-11T17:11:55;3.00;;;1.53;;
2107;SDS011;1060;52.492;13.388;2022-07-11T17:15:25;4.00;;;1.37;;
2107;SDS011;1060;52.492;13.388;2022-07-11T17:18:00;1.40;;;1.10;;
2107;SDS011;1060;52.492;13.388;2022-07-11T17:20:55;2.23;;;1.57;;
2107;SDS011;1060;52.492;13.388;2022-07-11T17:23:49;4.23;;;1.50;;
2107;SDS011;1060;52.492;13.388;2022-07-11T17:26:40;3.63;;;1.50;;
2107;SDS011;1060;52.492;13.388;2022-07-11T17:29:20;4.33;;;2.00;;
2107;SDS011;1060;52.492;13.388;2022-07-11T17:34:45;2.57;;;1.23;;
2107;SDS011;1060;52.492;13.388;2022-07-11T17:37:24;3.00;;;1.57;;
2107;SDS011;1060;52.492;13.388;2022-07-11T17:40:13;3.23;;;1.87;;
2107;SDS011;1060;52.492;13.388;2022-07-11T17:43:08;4.30;;;1.87;;
2107;SDS011;1060;52.492;13.388;2022-07-11T17:46:25;2.27;;;1.00;;
2107;SDS011;1060;52.492;13.388;2022-07-11T17:49:38;2.27;;;1.20;;
2107;SDS011;1060;52.492;13.388;2022-07-11T17:52:32;2.63;;;1.60;;
2107;SDS011;1060;52.492;13.388;2022-07-11T17:55:22;1.70;;;1.57;;
2107;SDS011;1060;52.492;13.388;2022-07-11T17:57:55;2.20;;;1.60;;
2107;SDS011;1060;52.492;13.388;2022-07-11T18:00:57;3.20;;;1.70;;
2107;SDS011;1060;52.492;13.388;2022-07-11T18:03:55;4.20;;;1.47;;
2107;SDS011;1060;52.492;13.388;2022-07-11T18:07:04;4.13;;;1.87;;
2107;SDS011;1060;52.492;13.388;2022-07-11T18:10:02;5.97;;;2.00;;
2107;SDS011;1060;52.492;13.388;2022-07-11T18:13:30;4.90;;;1.40;;
2107;SDS011;1060;52.492;13.388;2022-07-11T18:16:40;3.00;;;1.67;;
2107;SDS011;1060;52.492;13.388;2022-07-11T18:22:30;4.10;;;1.93;;
2107;SDS011;1060;52.492;13.388;2022-07-11T18:28:55;3.30;;;1.90;;
2107;SDS011;1060;52.492;13.388;2022-07-11T18:32:05;1.73;;;1.30;;
2107;SDS011;1060;52.492;13.388;2022-07-11T18:35:22;5.90;;;2.53;;
2107;SDS011;1060;52.492;13.388;2022-07-11T18:48:32;5.03;;;2.50;;
2107;SDS011;1060;52.492;13.388;2022-07-11T18:54:39;3.13;;;1.30;;
2107;SDS011;1060;52.492;13.388;2022-07-11T18:57:26;3.90;;;1.60;;
2107;SDS011;1060;52.492;13.388;2022-07-11T19:00:16;2.60;;;1.43;;
2107;SDS011;1060;52.492;13.388;2022-07-11T19:03:11;2.53;;;1.50;;
2107;SDS011;1060;52.492;13.388;2022-07-11T19:05:55;2.97;;;2.10;;
2107;SDS011;1060;52.492;13.388;2022-07-11T19:08:30;2.73;;;2.07;;
2107;SDS011;1060;52.492;13.388;2022-07-11T19:17:46;5.53;;;1.67;;
2107;SDS011;1060;52.492;13.388;2022-07-11T19:24:04;7.77;;;1.80;;
2107;SDS011;1060;52.492;13.388;2022-07-11T19:26:49;2.20;;;1.40;;
2107;SDS011;1060;52.492;13.388;2022-07-11T19:30:09;2.23;;;1.80;;
2107;SDS011;1060;52.492;13.388;2022-07-11T19:33:26;4.20;;;2.30;;
2107;SDS011;1060;52.492;13.388;2022-07-11T19:36:20;2.03;;;1.50;;
2107;SDS011;1060;52.492;13.388;2022-07-11T19:39:25;2.60;;;2.00;;
2107;SDS011;1060;52.492;13.388;2022-07-11T19:42:25;4.20;;;1.73;;
2107;SDS011;1060;52.492;13.388;2022-07-11T19:45:28;2.10;;;1.93;;
2107;SDS011;1060;52.492;13.388;2022-07-11T19:48:27;3.03;;;1.70;;
2107;SDS011;1060;52.492;13.388;2022-07-11T19:51:42;1.70;;;1.13;;
2107;SDS011;1060;52.492;13.388;2022-07-11T19:54:47;3.20;;;1.70;;
2107;SDS011;1060;52.492;13.388;2022-07-11T19:57:44;4.90;;;2.10;;
2107;SDS011;1060;52.492;13.388;2022-07-11T20:01:03;1.97;;;1.60;;
2107;SDS011;1060;52.492;13.388;2022-07-11T20:03:45;3.47;;;2.00;;
2107;SDS011;1060;52.492;13.388;2022-07-11T20:06:39;3.63;;;1.77;;
2107;SDS011;1060;52.492;13.388;2022-07-11T20:09:52;2.87;;;2.20;;
2107;SDS011;1060;52.492;13.388;2022-07-11T20:19:57;3.33;;;2.37;;
2107;SDS011;1060;52.492;13.388;2022-07-11T20:23:22;4.53;;;2.90;;
2107;SDS011;1060;52.492;13.388;2022-07-11T20:30:15;2.83;;;2.63;;
2107;SDS011;1060;52.492;13.388;2022-07-11T20:33:24;5.53;;;3.13;;
2107;SDS011;1060;52.492;13.388;2022-07-11T20:46:04;4.00;;;3.27;;
2107;SDS011;1060;52.492;13.388;2022-07-11T21:08:30;5.23;;;4.83;;
2107;SDS011;1060;52.492;13.388;2022-07-11T21:10:58;7.40;;;6.70;;
2107;SDS011;1060;52.492;13.388;2022-07-11T21:20:06;6.37;;;5.07;;
2107;SDS011;1060;52.492;13.388;2022-07-11T21:23:19;5.03;;;2.90;;
2107;SDS011;1060;52.492;13.388;2022-07-11T21:26:03;2.77;;;2.57;;
2107;SDS011;1060;52.492;13.388;2022-07-11T21:28:45;12.60;;;4.60;;
2107;SDS011;1060;52.492;13.388;2022-07-11T21:31:20;3.57;;;2.70;;
2107;SDS011;1060;52.492;13.388;2022-07-11T21:33:50;3.00;;;2.33;;
2107;SDS011;1060;52.492;13.388;2022-07-11T21:36:26;4.53;;;3.20;;
2107;SDS011;1060;52.492;13.388;2022-07-11T21:39:04;3.67;;;2.37;;
2107;SDS011;1060;52.492;13.388;2022-07-11T21:41:43;3.70;;;2.80;;
2107;SDS011;1060;52.492;13.388;2022-07-11T21:44:33;2.60;;;2.40;;
2107;SDS011;1060;52.492;13.388;2022-07-11T21:47:31;4.60;;;2.73;;
2107;SDS011;1060;52.492;13.388;2022-07-11T21:49:57;3.03;;;2.80;;
2107;SDS011;1060;52.492;13.388;2022-07-11T21:52:44;2.87;;;2.67;;
2107;SDS011;1060;52.492;13.388;2022-07-11T21:55:44;2.33;;;2.13;;
2107;SDS011;1060;52.492;13.388;2022-07-11T21:58:37;4.40;;;2.23;;
2107;SDS011;1060;52.492;13.388;2022-07-11T22:01:35;5.03;;;1.77;;
2107;SDS011;1060;52.492;13.388;2022-07-11T22:04:14;3.07;;;2.10;;
2107;SDS011;1060;52.492;13.388;2022-07-11T22:06:52;2.40;;;2.20;;
2107;SDS011;1060;52.492;13.388;2022-07-11T22:09:41;2.10;;;1.63;;
2107;SDS011;1060;52.492;13.388;2022-07-11T22:12:08;3.80;;;1.80;;
2107;SDS011;1060;52.492;13.388;2022-07-11T22:14:56;7.00;;;2.37;;
2107;SDS011;1060;52.492;13.388;2022-07-11T22:17:25;3.87;;;2.43;;
2107;SDS011;1060;52.492;13.388;2022-07-11T22:20:06;5.47;;;2.90;;
2107;SDS011;1060;52.492;13.388;2022-07-11T22:22:35;3.27;;;2.67;;
2107;SDS011;1060;52.492;13.388;2022-07-11T22:25:05;3.63;;;2.47;;
2107;SDS011;1060;52.492;13.388;2022-07-11T22:27:33;5.37;;;3.13;;
2107;SDS011;1060;52.492;13.388;2022-07-11T22:30:08;4.80;;;2.13;;
2107;SDS011;1060;52.492;13.388;2022-07-11T22:32:48;3.70;;;2.43;;
2107;SDS011;1060;52.492;13.388;2022-07-11T22:35:17;3.90;;;2.90;;
2107;SDS011;1060;52.492;13.388;2022-07-11T22:37:50;3.73;;;2.20;;
2107;SDS011;1060;52.492;13.388;2022-07-11T22:40:37;3.10;;;2.57;;
2107;SDS011;1060;52.492;13.388;2022-07-11T22:43:28;5.60;;;3.07;;
2107;SDS011;1060;52.492;13.388;2022-07-11T22:46:00;3.97;;;2.77;;
2107;SDS011;1060;52.492;13.388;2022-07-11T22:48:52;3.90;;;2.93;;
2107;SDS011;1060;52.492;13.388;2022-07-11T22:51:30;3.53;;;3.33;;
2107;SDS011;1060;52.492;13.388;2022-07-11T22:54:15;5.63;;;4.10;;
2107;SDS011;1060;52.492;13.388;2022-07-11T22:56:52;2.93;;;2.70;;
2107;SDS011;1060;52.492;13.388;2022-07-11T22:59:24;3.37;;;3.03;;
2107;SDS011;1060;52.492;13.388;2022-07-11T23:05:06;4.37;;;2.60;;
2107;SDS011;1060;52.492;13.388;2022-07-11T23:07:40;3.43;;;2.17;;
2107;SDS011;1060;52.492;13.388;2022-07-11T23:10:22;6.33;;;3.00;;
2107;SDS011;1060;52.492;13.388;2022-07-11T23:12:54;5.90;;;3.07;;
2107;SDS011;1060;52.492;13.388;2022-07-11T23:15:20;2.63;;;2.27;;
2107;SDS011;1060;52.492;13.388;2022-07-11T23:18:16;3.60;;;2.90;;
2107;SDS011;1060;52.492;13.388;2022-07-11T23:20:49;3.80;;;2.40;;
2107;SDS011;1060;52.492;13.388;2022-07-11T23:23:30;2.93;;;2.30;;
2107;SDS011;1060;52.492;13.388;2022-07-11T23:26:21;2.80;;;2.60;;
2107;SDS011;1060;52.492;13.388;2022-07-11T23:28:52;8.30;;;2.70;;
2107;SDS011;1060;52.492;13.388;2022-07-11T23:31:24;2.67;;;2.47;;
2107;SDS011;1060;52.492;13.388;2022-07-11T23:34:00;3.93;;;2.60;;
2107;SDS011;1060;52.492;13.388;2022-07-11T23:36:35;3.53;;;2.20;;
2107;SDS011;1060;52.492;13.388;2022-07-11T23:42:43;5.83;;;4.07;;
2107;SDS011;1060;52.492;13.388;2022-07-11T23:45:13;5.37;;;3.90;;
2107;SDS011;1060;52.492;13.388;2022-07-11T23:51:06;4.83;;;2.83;;
2107;SDS011;1060;52.492;13.388;2022-07-11T23:53:57;4.00;;;2.80;;
2107;SDS011;1060;52.492;13.388;2022-07-11T23:59:39;3.40;;;2.60;;
